createdAt,value
2018-11-28T00:01:32.610Z,8.42
2018-11-28T00:04:09.593Z,8.44
2018-11-28T00:06:46.103Z,8.40
2018-11-28T00:09:22.327Z,8.19
2018-11-28T00:14:38.915Z,8.10
2018-11-28T00:17:15.223Z,8.19
2018-11-28T00:19:51.594Z,8.08
2018-11-28T00:22:28.082Z,8.03
2018-11-28T00:25:04.806Z,8.06
2018-11-28T00:27:43.066Z,7.90
2018-11-28T00:30:23.325Z,7.88
2018-11-28T00:33:03.724Z,7.93
2018-11-28T00:35:40.154Z,7.85
2018-11-28T00:38:16.664Z,7.99
2018-11-28T00:40:53.130Z,7.97
2018-11-28T00:43:29.621Z,7.65
2018-11-28T00:46:06.646Z,7.69
2018-11-28T00:48:43.058Z,7.69
2018-11-28T00:51:19.587Z,7.55
2018-11-28T00:53:55.924Z,7.51
2018-11-28T00:56:32.244Z,7.53
2018-11-28T00:59:08.619Z,7.46
2018-11-28T01:01:44.718Z,7.42
2018-11-28T01:04:21.082Z,7.40
2018-11-28T01:07:01.391Z,7.41
2018-11-28T01:09:37.911Z,7.31
2018-11-28T01:12:14.356Z,7.15
2018-11-28T01:14:50.803Z,7.15
2018-11-28T01:17:27.059Z,7.21
2018-11-28T01:20:03.599Z,6.97
2018-11-28T01:22:40.010Z,6.98
2018-11-28T01:25:17.929Z,6.82
2018-11-28T01:27:54.320Z,6.91
2018-11-28T01:30:30.669Z,6.85
2018-11-28T01:33:07.586Z,6.95
2018-11-28T01:35:43.889Z,6.90
2018-11-28T01:38:20.376Z,6.92
2018-11-28T01:40:56.727Z,6.91
2018-11-28T01:43:33.217Z,6.96
2018-11-28T01:46:09.470Z,6.81
2018-11-28T01:48:45.815Z,6.85
2018-11-28T01:51:22.206Z,6.74
2018-11-28T01:53:58.604Z,6.78
2018-11-28T01:56:35.175Z,6.73
2018-11-28T01:59:11.601Z,6.83
2018-11-28T02:01:48.060Z,6.68
2018-11-28T02:04:24.355Z,6.65
2018-11-28T02:07:00.826Z,6.62
2018-11-28T02:09:37.147Z,6.57
2018-11-28T02:12:13.843Z,6.49
2018-11-28T02:14:50.160Z,6.49
2018-11-28T02:17:26.459Z,6.51
2018-11-28T02:20:03.023Z,6.53
2018-11-28T02:22:39.500Z,6.46
2018-11-28T02:25:17.754Z,6.52
2018-11-28T02:27:54.127Z,6.51
2018-11-28T02:30:30.525Z,6.55
2018-11-28T02:33:06.900Z,6.55
2018-11-28T02:35:43.199Z,6.47
2018-11-28T02:38:19.554Z,6.43
2018-11-28T02:40:55.989Z,6.38
2018-11-28T02:43:32.598Z,6.35
2018-11-28T02:46:34.797Z,6.31
2018-11-28T02:49:11.185Z,6.41
2018-11-28T02:51:47.976Z,6.33
2018-11-28T02:54:24.233Z,6.36
2018-11-28T02:57:00.498Z,6.34
2018-11-28T02:59:36.889Z,6.36
2018-11-28T03:02:13.068Z,6.45
2018-11-28T03:04:49.404Z,6.45
2018-11-28T03:07:25.721Z,6.53
2018-11-28T03:10:02.082Z,6.46
2018-11-28T03:12:38.352Z,6.35
2018-11-28T03:15:22.184Z,6.06
2018-11-28T03:17:58.542Z,5.98
2018-11-28T03:20:34.884Z,5.95
2018-11-28T03:23:11.097Z,6.20
2018-11-28T03:25:47.373Z,6.22
2018-11-28T03:28:23.681Z,6.19
2018-11-28T03:31:00.091Z,6.04
2018-11-28T03:33:36.485Z,6.11
2018-11-28T03:36:12.743Z,6.23
2018-11-28T03:38:49.065Z,6.28
2018-11-28T03:41:25.357Z,6.10
2018-11-28T03:44:01.555Z,5.90
2018-11-28T03:46:37.802Z,6.02
2018-11-28T03:49:14.072Z,6.16
2018-11-28T03:51:50.448Z,6.22
2018-11-28T03:54:26.771Z,6.27
2018-11-28T03:57:03.058Z,6.35
2018-11-28T03:59:39.323Z,6.34
2018-11-28T04:02:15.773Z,6.29
2018-11-28T04:04:52.124Z,6.19
2018-11-28T04:07:28.347Z,6.28
2018-11-28T04:10:05.958Z,6.22
2018-11-28T04:12:43.041Z,6.19
2018-11-28T04:15:20.177Z,6.17
2018-11-28T04:17:56.598Z,6.20
2018-11-28T04:20:32.749Z,6.20
2018-11-28T04:23:09.020Z,6.23
2018-11-28T04:25:45.293Z,6.28
2018-11-28T04:28:21.611Z,6.22
2018-11-28T04:30:57.917Z,6.20
2018-11-28T04:33:34.331Z,6.18
2018-11-28T04:36:10.494Z,6.33
2018-11-28T04:38:46.643Z,6.45
2018-11-28T04:41:22.889Z,6.35
2018-11-28T04:43:59.276Z,6.47
2018-11-28T04:46:35.612Z,6.38
2018-11-28T04:49:20.249Z,6.35
2018-11-28T04:51:59.523Z,6.48
2018-11-28T04:54:35.662Z,6.50
2018-11-28T04:57:12.038Z,6.44
2018-11-28T04:59:48.248Z,6.40
2018-11-28T05:02:25.054Z,6.51
2018-11-28T05:05:01.414Z,6.50
2018-11-28T05:07:37.691Z,6.52
2018-11-28T05:10:18.087Z,6.44
2018-11-28T05:12:54.648Z,6.51
2018-11-28T05:15:32.795Z,6.51
2018-11-28T05:18:09.108Z,6.49
2018-11-28T05:20:45.387Z,6.60
2018-11-28T05:23:21.793Z,6.66
2018-11-28T05:25:58.732Z,6.71
2018-11-28T05:28:34.908Z,6.43
2018-11-28T05:31:11.257Z,6.17
2018-11-28T05:33:47.564Z,6.09
2018-11-28T05:36:23.969Z,6.26
2018-11-28T05:39:00.228Z,6.25
2018-11-28T05:41:36.667Z,6.06
2018-11-28T05:44:21.356Z,6.24
2018-11-28T05:46:57.657Z,6.43
2018-11-28T05:49:33.947Z,6.51
2018-11-28T05:52:10.478Z,6.50
2018-11-28T05:54:50.481Z,6.60
2018-11-28T05:57:30.727Z,6.69
2018-11-28T06:00:24.527Z,6.88
2018-11-28T06:03:00.789Z,7.26
2018-11-28T06:05:37.676Z,7.18
2018-11-28T06:08:14.448Z,7.23
2018-11-28T06:10:50.631Z,7.31
2018-11-28T06:13:26.974Z,7.43
2018-11-28T06:16:03.549Z,7.13
2018-11-28T06:18:40.521Z,7.21
2018-11-28T06:21:16.377Z,7.09
2018-11-28T06:23:52.860Z,7.24
2018-11-28T06:26:29.055Z,7.10
2018-11-28T06:29:05.283Z,7.42
2018-11-28T06:31:41.889Z,7.52
2018-11-28T06:34:19.370Z,7.57
2018-11-28T06:36:55.652Z,7.18
2018-11-28T06:39:41.532Z,7.24
2018-11-28T06:42:21.172Z,7.26
2018-11-28T06:44:57.393Z,7.18
2018-11-28T06:47:34.560Z,7.26
2018-11-28T06:50:15.027Z,7.37
2018-11-28T06:52:52.040Z,7.20
2018-11-28T06:55:28.337Z,7.25
2018-11-28T06:58:10.300Z,7.19
2018-11-28T07:00:46.503Z,7.07
2018-11-28T07:03:22.741Z,7.14
2018-11-28T07:05:59.007Z,7.23
2018-11-28T07:08:35.333Z,7.26
2018-11-28T07:11:12.240Z,7.19
2018-11-28T07:13:48.423Z,7.11
2018-11-28T07:16:24.764Z,7.07
2018-11-28T07:19:10.627Z,7.01
2018-11-28T07:21:46.789Z,6.97
2018-11-28T07:24:25.517Z,6.90
2018-11-28T07:27:01.719Z,6.84
2018-11-28T07:29:37.839Z,6.91
2018-11-28T07:32:14.627Z,6.81
2018-11-28T07:34:50.797Z,6.80
2018-11-28T07:37:27.048Z,6.85
2018-11-28T07:40:03.215Z,6.85
2018-11-28T07:42:39.535Z,6.91
2018-11-28T07:45:18.406Z,6.89
2018-11-28T07:47:54.771Z,6.68
2018-11-28T07:50:31.131Z,6.83
2018-11-28T07:53:07.518Z,6.64
2018-11-28T07:55:43.787Z,6.73
2018-11-28T07:58:20.129Z,6.81
2018-11-28T08:00:56.464Z,6.79
2018-11-28T08:03:32.839Z,6.79
2018-11-28T08:06:09.092Z,6.76
2018-11-28T08:08:45.457Z,6.78
2018-11-28T08:11:21.574Z,6.74
2018-11-28T08:13:57.865Z,6.65
2018-11-28T08:16:34.246Z,6.79
2018-11-28T08:19:10.609Z,6.78
2018-11-28T08:21:46.827Z,6.65
2018-11-28T08:24:23.092Z,6.58
2018-11-28T08:26:59.266Z,6.62
2018-11-28T08:29:35.536Z,6.62
2018-11-28T08:32:11.688Z,6.48
2018-11-28T08:34:48.082Z,6.41
2018-11-28T08:37:24.349Z,6.34
2018-11-28T08:40:00.636Z,6.28
2018-11-28T08:42:36.851Z,6.32
2018-11-28T08:45:15.705Z,6.34
2018-11-28T08:47:55.449Z,6.19
2018-11-28T08:50:33.994Z,6.15
2018-11-28T08:53:10.300Z,6.03
2018-11-28T08:55:46.669Z,6.01
2018-11-28T08:58:22.883Z,6.06
2018-11-28T09:00:59.276Z,6.10
2018-11-28T09:03:35.416Z,6.10
2018-11-28T09:06:11.819Z,6.08
2018-11-28T09:08:48.049Z,6.01
2018-11-28T09:11:24.375Z,5.96
2018-11-28T09:14:04.548Z,6.01
2018-11-28T09:16:36.885Z,6.02
2018-11-28T09:19:13.187Z,6.08
2018-11-28T09:21:49.587Z,6.00
2018-11-28T09:24:25.849Z,6.10
2018-11-28T09:27:03.693Z,6.10
2018-11-28T09:29:38.807Z,6.08
2018-11-28T09:32:15.147Z,6.06
2018-11-28T09:34:51.276Z,6.15
2018-11-28T09:37:27.657Z,6.12
2018-11-28T09:40:04.371Z,6.09
2018-11-28T09:42:41.060Z,6.14
2018-11-28T09:45:18.089Z,5.92
2018-11-28T09:47:54.394Z,5.79
2018-11-28T09:50:30.622Z,5.83
2018-11-28T09:53:06.968Z,5.86
2018-11-28T09:55:43.132Z,5.68
2018-11-28T09:58:19.620Z,5.73
2018-11-28T10:00:55.928Z,5.73
2018-11-28T10:03:32.273Z,5.55
2018-11-28T10:06:08.595Z,5.62
2018-11-28T10:08:45.071Z,5.61
2018-11-28T10:11:21.276Z,5.63
2018-11-28T10:13:57.656Z,5.46
2018-11-28T10:16:33.780Z,5.52
2018-11-28T10:19:10.044Z,5.57
2018-11-28T10:21:46.348Z,5.59
2018-11-28T10:24:22.776Z,5.67
2018-11-28T10:26:58.928Z,5.73
2018-11-28T10:29:35.272Z,5.51
2018-11-28T10:32:11.514Z,5.55
2018-11-28T10:34:47.885Z,5.69
2018-11-28T10:37:24.092Z,5.75
2018-11-28T10:40:04.978Z,5.57
2018-11-28T10:42:42.418Z,5.50
2018-11-28T10:45:20.376Z,5.51
2018-11-28T10:47:56.962Z,5.43
2018-11-28T10:50:33.123Z,5.31
2018-11-28T10:53:09.498Z,5.56
2018-11-28T10:55:45.857Z,5.56
2018-11-28T10:58:22.009Z,5.83
2018-11-28T11:01:03.437Z,5.84
2018-11-28T11:03:44.629Z,5.36
2018-11-28T11:06:26.108Z,5.39
2018-11-28T11:09:07.484Z,5.23
2018-11-28T11:11:48.896Z,5.45
2018-11-28T11:14:30.040Z,5.36
2018-11-28T11:17:06.597Z,5.26
2018-11-28T11:19:42.772Z,5.16
2018-11-28T11:22:19.149Z,5.13
2018-11-28T11:24:55.380Z,5.10
2018-11-28T11:27:32.366Z,5.10
2018-11-28T11:30:11.879Z,5.21
2018-11-28T11:32:48.138Z,5.31
2018-11-28T11:35:24.484Z,5.52
2018-11-28T11:38:00.777Z,5.43
2018-11-28T11:40:36.944Z,5.48
2018-11-28T11:43:13.374Z,5.48
2018-11-28T11:45:49.649Z,5.67
2018-11-28T11:48:25.841Z,5.70
2018-11-28T11:51:02.140Z,5.70
2018-11-28T11:53:38.467Z,5.69
2018-11-28T11:56:14.710Z,5.59
2018-11-28T11:58:51.006Z,5.76
2018-11-28T12:01:27.331Z,5.89
2018-11-28T12:04:03.675Z,5.80
2018-11-28T12:06:39.942Z,5.83
2018-11-28T12:09:16.268Z,5.79
2018-11-28T12:11:52.553Z,5.83
2018-11-28T12:14:29.000Z,5.81
2018-11-28T12:17:06.026Z,5.90
2018-11-28T12:19:45.753Z,5.91
2018-11-28T12:22:21.948Z,5.86
2018-11-28T12:24:58.180Z,5.79
2018-11-28T12:27:34.303Z,5.71
2018-11-28T12:30:12.511Z,5.81
2018-11-28T12:32:48.717Z,5.78
2018-11-28T12:35:24.924Z,5.69
2018-11-28T12:38:01.697Z,5.71
2018-11-28T12:40:38.451Z,5.63
2018-11-28T12:43:14.940Z,5.82
2018-11-28T12:45:51.888Z,5.73
2018-11-28T12:48:28.244Z,5.64
2018-11-28T12:51:04.466Z,5.67
2018-11-28T12:53:40.717Z,5.43
2018-11-28T12:56:17.004Z,5.56
2018-11-28T12:58:47.680Z,5.59
2018-11-28T13:01:18.900Z,5.56
2018-11-28T13:03:50.067Z,5.59
2018-11-28T13:06:21.194Z,5.54
2018-11-28T13:08:53.349Z,5.56
2018-11-28T13:11:24.480Z,5.60
2018-11-28T13:13:55.623Z,5.49
2018-11-28T13:16:26.832Z,5.48
2018-11-28T13:18:57.969Z,5.33
2018-11-28T13:21:29.135Z,5.33
2018-11-28T13:24:00.281Z,5.38
2018-11-28T13:26:31.436Z,5.52
2018-11-28T13:29:02.665Z,5.50
2018-11-28T13:31:33.881Z,5.38
2018-11-28T13:34:05.073Z,5.44
2018-11-28T13:36:36.204Z,5.68
2018-11-28T13:39:08.730Z,5.59
2018-11-28T13:41:39.972Z,5.49
2018-11-28T13:44:11.137Z,5.44
2018-11-28T13:46:42.491Z,5.45
2018-11-28T13:49:13.643Z,5.44
2018-11-28T13:51:44.742Z,5.22
2018-11-28T13:54:21.304Z,5.25
2018-11-28T13:57:04.696Z,5.22
2018-11-28T13:59:18.155Z,5.21
2018-11-28T14:01:49.355Z,5.12
2018-11-28T14:04:20.456Z,4.99
2018-11-28T14:06:51.608Z,5.06
2018-11-28T14:09:22.788Z,5.22
2018-11-28T14:11:54.003Z,5.21
2018-11-28T14:14:25.123Z,5.24
2018-11-28T14:16:56.296Z,5.14
2018-11-28T14:19:27.399Z,4.94
2018-11-28T14:21:58.554Z,5.05
2018-11-28T14:24:29.660Z,5.14
2018-11-28T14:27:01.188Z,5.14
2018-11-28T14:29:32.323Z,5.17
2018-11-28T14:32:03.534Z,5.08
2018-11-28T14:34:34.720Z,4.96
2018-11-28T14:37:06.318Z,4.87
2018-11-28T14:39:37.473Z,4.90
2018-11-28T14:42:08.748Z,4.98
2018-11-28T14:44:39.946Z,4.83
2018-11-28T14:47:11.251Z,4.67
2018-11-28T14:49:42.369Z,4.81
2018-11-28T14:52:13.499Z,4.61
2018-11-28T14:54:44.655Z,4.42
2018-11-28T14:57:15.873Z,4.60
2018-11-28T14:59:46.990Z,4.61
2018-11-28T15:02:18.260Z,4.44
2018-11-28T15:04:49.653Z,4.45
2018-11-28T15:07:21.188Z,4.38
2018-11-28T15:09:57.182Z,4.19
2018-11-28T15:12:29.968Z,4.14
2018-11-28T15:15:01.052Z,4.19
2018-11-28T15:17:32.297Z,4.24
2018-11-28T15:20:03.536Z,4.22
2018-11-28T15:22:34.736Z,4.44
2018-11-28T15:25:08.690Z,4.30
2018-11-28T15:27:39.838Z,4.28
2018-11-28T15:30:11.505Z,4.34
2018-11-28T15:32:43.062Z,4.31
2018-11-28T15:35:14.612Z,4.43
2018-11-28T15:37:45.819Z,4.27
2018-11-28T15:40:18.117Z,4.25
2018-11-28T15:42:50.182Z,4.13
2018-11-28T15:45:21.336Z,4.22
2018-11-28T15:48:01.096Z,4.22
2018-11-28T15:50:32.328Z,4.36
2018-11-28T15:53:03.600Z,4.34
2018-11-28T15:55:34.832Z,4.22
2018-11-28T15:58:06.726Z,4.16
2018-11-28T16:00:46.912Z,4.10
2018-11-28T16:03:24.220Z,4.04
2018-11-28T16:05:55.378Z,4.38
2018-11-28T16:08:26.530Z,4.14
2018-11-28T16:10:57.807Z,4.12
2018-11-28T16:13:29.021Z,4.07
2018-11-28T16:16:00.272Z,4.01
2018-11-28T16:18:31.477Z,3.94
2018-11-28T16:21:02.742Z,3.88
2018-11-28T16:23:33.924Z,3.81
2018-11-28T16:26:05.070Z,3.73
2018-11-28T16:28:36.273Z,3.75
2018-11-28T16:31:07.478Z,3.51
2018-11-28T16:33:38.823Z,3.43
2018-11-28T16:36:10.019Z,3.44
2018-11-28T16:38:41.355Z,3.59
2018-11-28T16:41:12.541Z,3.56
2018-11-28T16:43:43.740Z,3.58
2018-11-28T16:46:14.932Z,3.72
2018-11-28T16:48:46.245Z,3.79
2018-11-28T16:51:17.400Z,3.86
2018-11-28T16:53:49.294Z,3.90
2018-11-28T16:56:20.428Z,3.85
2018-11-28T16:58:51.726Z,3.70
2018-11-28T17:01:22.939Z,3.82
2018-11-28T17:03:54.233Z,3.72
2018-11-28T17:06:25.688Z,3.71
2018-11-28T17:08:56.926Z,3.48
2018-11-28T17:11:28.133Z,3.60
2018-11-28T17:13:59.324Z,3.81
2018-11-28T17:16:30.436Z,3.71
2018-11-28T17:19:01.595Z,3.60
2018-11-28T17:21:32.756Z,3.67
2018-11-28T17:24:08.061Z,3.74
2018-11-28T17:26:39.210Z,3.74
2018-11-28T17:29:10.426Z,3.61
2018-11-28T17:31:41.645Z,3.74
2018-11-28T17:34:12.920Z,3.71
2018-11-28T17:36:44.027Z,3.72
2018-11-28T17:39:15.176Z,3.67
2018-11-28T17:41:46.317Z,3.71
2018-11-28T17:44:17.512Z,3.47
2018-11-28T17:46:48.665Z,3.56
2018-11-28T17:49:19.948Z,3.76
2018-11-28T17:51:51.508Z,3.72
2018-11-28T17:54:22.654Z,3.51
2018-11-28T17:56:53.796Z,3.59
2018-11-28T17:59:24.988Z,3.69
2018-11-28T18:01:56.155Z,3.75
2018-11-28T18:04:34.689Z,3.87
2018-11-28T18:07:08.307Z,3.93
2018-11-28T18:09:39.490Z,3.75
2018-11-28T18:12:11.603Z,3.59
2018-11-28T18:14:42.801Z,3.65
2018-11-28T18:17:13.961Z,3.56
2018-11-28T18:19:45.231Z,3.47
2018-11-28T18:22:16.415Z,3.50
2018-11-28T18:24:47.623Z,3.30
2018-11-28T18:27:21.240Z,3.42
2018-11-28T18:29:52.456Z,3.34
2018-11-28T18:32:23.636Z,3.33
2018-11-28T18:34:54.818Z,3.37
2018-11-28T18:37:25.934Z,3.28
2018-11-28T18:39:57.091Z,3.15
2018-11-28T18:42:28.343Z,3.26
2018-11-28T18:44:59.467Z,3.14
2018-11-28T18:47:30.565Z,3.03
2018-11-28T18:50:01.972Z,3.15
2018-11-28T18:52:33.076Z,3.25
2018-11-28T18:55:04.435Z,3.12
2018-11-28T18:57:35.529Z,3.15
2018-11-28T19:00:12.147Z,3.12
2018-11-28T19:02:43.326Z,2.99
2018-11-28T19:05:14.587Z,2.96
2018-11-28T19:07:45.706Z,3.12
2018-11-28T19:10:26.347Z,3.10
2018-11-28T19:12:53.833Z,3.15
2018-11-28T19:15:26.685Z,3.20
2018-11-28T19:17:59.270Z,3.11
2018-11-28T19:20:30.614Z,3.20
2018-11-28T19:23:01.788Z,3.21
2018-11-28T19:25:33.689Z,3.24
2018-11-28T19:28:04.877Z,3.35
2018-11-28T19:30:37.248Z,3.49
2018-11-28T19:33:09.764Z,3.36
2018-11-28T19:35:41.050Z,3.45
2018-11-28T19:38:14.378Z,3.42
2018-11-28T19:40:49.930Z,3.38
2018-11-28T19:43:21.173Z,3.41
2018-11-28T19:45:52.366Z,3.64
2018-11-28T19:48:23.462Z,3.89
2018-11-28T19:50:54.838Z,3.83
2018-11-28T19:53:26.064Z,3.82
2018-11-28T19:55:57.266Z,3.61
2018-11-28T19:58:32.600Z,3.30
2018-11-28T20:01:13.190Z,3.33
2018-11-28T20:03:55.126Z,3.44
2018-11-28T20:06:26.340Z,2.93
2018-11-28T20:08:58.257Z,2.58
2018-11-28T20:11:29.445Z,2.60
2018-11-28T20:14:00.589Z,2.59
2018-11-28T20:16:31.857Z,2.79
2018-11-28T20:19:02.994Z,2.92
2018-11-28T20:21:34.239Z,2.87
2018-11-28T20:24:05.393Z,2.68
2018-11-28T20:26:36.566Z,2.56
2018-11-28T20:29:07.687Z,2.44
2018-11-28T20:31:38.947Z,2.34
2018-11-28T20:34:10.134Z,2.15
2018-11-28T20:36:41.284Z,2.30
2018-11-28T20:39:12.372Z,1.99
2018-11-28T20:41:43.829Z,1.90
2018-11-28T20:44:14.841Z,1.67
2018-11-28T20:46:46.207Z,1.76
2018-11-28T20:49:17.350Z,1.84
2018-11-28T20:51:52.096Z,1.71
2018-11-28T20:54:23.396Z,1.66
2018-11-28T20:56:54.602Z,1.39
2018-11-28T20:59:38.261Z,1.32
2018-11-28T21:02:10.453Z,1.25
2018-11-28T21:04:46.699Z,1.15
2018-11-28T21:07:23.234Z,1.33
2018-11-28T21:10:03.532Z,1.44
2018-11-28T21:12:39.855Z,1.51
2018-11-28T21:15:16.209Z,1.32
2018-11-28T21:17:55.992Z,1.43
2018-11-28T21:20:34.304Z,1.47
2018-11-28T21:23:20.454Z,1.22
2018-11-28T21:25:57.205Z,0.85
2018-11-28T21:28:33.587Z,0.98
2018-11-28T21:31:09.713Z,0.90
2018-11-28T21:33:46.035Z,0.89
2018-11-28T21:36:22.328Z,0.71
2018-11-28T21:38:58.630Z,0.55
2018-11-28T21:41:35.336Z,0.51
2018-11-28T21:44:11.780Z,0.67
2018-11-28T21:46:48.193Z,0.76
2018-11-28T21:49:24.617Z,0.63
2018-11-28T21:52:00.844Z,0.65
2018-11-28T21:54:37.166Z,0.68
2018-11-28T21:57:13.395Z,0.76
2018-11-28T21:59:49.700Z,0.83
2018-11-28T22:02:25.989Z,0.91
2018-11-28T22:05:02.091Z,0.96
2018-11-28T22:07:38.679Z,1.17
2018-11-28T22:10:18.666Z,1.19
2018-11-28T22:12:55.670Z,1.21
2018-11-28T22:15:31.963Z,1.23
2018-11-28T22:18:08.326Z,1.37
2018-11-28T22:20:44.556Z,1.23
2018-11-28T22:23:20.856Z,1.34
2018-11-28T22:25:57.120Z,1.33
2018-11-28T22:28:33.543Z,1.26
2018-11-28T22:31:09.867Z,1.12
2018-11-28T22:33:46.062Z,1.18
2018-11-28T22:36:22.276Z,1.22
2018-11-28T22:39:00.415Z,1.05
2018-11-28T22:41:36.591Z,1.11
2018-11-28T22:44:12.722Z,1.20
2018-11-28T22:46:48.912Z,1.28
2018-11-28T22:49:25.224Z,1.28
2018-11-28T22:52:01.641Z,1.27
2018-11-28T22:54:38.218Z,1.09
2018-11-28T22:57:14.964Z,0.61
2018-11-28T22:59:51.776Z,0.86
2018-11-28T23:03:10.188Z,1.00
2018-11-28T23:05:50.875Z,0.58
2018-11-28T23:08:27.614Z,0.55
2018-11-28T23:11:04.365Z,0.71
2018-11-28T23:13:41.627Z,0.71
2018-11-28T23:16:18.922Z,0.75
2018-11-28T23:18:56.599Z,0.64
2018-11-28T23:21:32.895Z,0.80
2018-11-28T23:24:13.529Z,0.88
2018-11-28T23:26:54.596Z,0.76
2018-11-28T23:29:31.469Z,0.82
2018-11-28T23:32:08.209Z,0.73
2018-11-28T23:34:46.638Z,0.86
2018-11-28T23:37:26.961Z,0.93
2018-11-28T23:40:04.474Z,0.95
2018-11-28T23:42:44.232Z,0.98
2018-11-28T23:45:22.332Z,0.91
2018-11-28T23:48:01.610Z,0.98
2018-11-28T23:50:38.669Z,0.79
2018-11-28T23:53:17.291Z,0.85
2018-11-28T23:55:54.256Z,0.75
2018-11-28T23:58:32.702Z,0.50
